Time;durP1;ratioP1;P1;durP2;ratioP2;P2;SDS_P1;SDS_P2;PMS_P1;PMS_P2;Temp;Humidity;BMP_temperature;BMP_pressure;BME280_temperature;BME280_humidity;BME280_pressure;Samples;Min_cycle;Max_cycle;Signal;HPM_P1;HPM_P2
2022/12/21 00:01:13;;;;;;;14.30;8.50;;;6.10;37.40;;;;;;4980394;28;20480;-64
2022/12/21 00:03:40;;;;;;;12.20;8.50;;;6.20;37.40;;;;;;4980994;28;20464;-64
2022/12/21 00:06:08;;;;;;;11.37;8.33;;;6.20;37.30;;;;;;4980286;28;20476;-63
2022/12/21 00:08:38;;;;;;;13.47;8.13;;;6.20;37.20;;;;;;4988947;28;20459;-64
2022/12/21 00:11:05;;;;;;;14.47;8.47;;;6.20;37.20;;;;;;4981283;28;20461;-63
2022/12/21 00:13:33;;;;;;;13.13;7.00;;;6.30;37.10;;;;;;4985323;28;20472;-64
2022/12/21 00:16:03;;;;;;;12.33;7.40;;;6.30;37.00;;;;;;4986719;28;20465;-64
2022/12/21 00:18:31;;;;;;;11.37;7.40;;;6.30;37.10;;;;;;4987794;28;20488;-63
2022/12/21 00:21:00;;;;;;;11.17;7.43;;;6.40;37.00;;;;;;4984794;28;20543;-63
2022/12/21 00:23:27;;;;;;;13.17;8.90;;;6.40;37.00;;;;;;4983894;28;20461;-64
2022/12/21 00:25:54;;;;;;;12.20;8.03;;;6.40;36.90;;;;;;4989965;28;20465;-63
2022/12/21 00:28:21;;;;;;;12.73;8.00;;;6.40;36.80;;;;;;4986082;28;20453;-64
2022/12/21 00:30:48;;;;;;;10.83;7.53;;;6.40;36.80;;;;;;4984742;28;20479;-64
2022/12/21 00:33:17;;;;;;;14.50;8.93;;;6.40;36.70;;;;;;4987228;28;20464;-63
2022/12/21 00:35:48;;;;;;;13.10;8.77;;;6.40;36.70;;;;;;4986214;28;20460;-63
2022/12/21 00:38:15;;;;;;;12.17;7.87;;;6.40;36.60;;;;;;4983836;28;20484;-64
2022/12/21 00:40:42;;;;;;;13.80;8.00;;;6.40;36.70;;;;;;4987166;28;20518;-64
2022/12/21 00:43:09;;;;;;;12.80;8.17;;;6.50;36.70;;;;;;4998026;23;20515;-68
2022/12/21 00:45:35;;;;;;;11.53;8.67;;;6.50;36.80;;;;;;4984922;28;20469;-69
2022/12/21 00:48:03;;;;;;;17.00;9.23;;;6.50;36.90;;;;;;4986720;28;20461;-68
2022/12/21 00:50:32;;;;;;;15.60;9.00;;;6.50;37.00;;;;;;4982971;28;20464;-68
2022/12/21 00:52:59;;;;;;;11.60;7.90;;;6.50;37.10;;;;;;4979219;28;20485;-68
2022/12/21 00:55:26;;;;;;;11.87;8.47;;;6.40;37.10;;;;;;4967900;28;20842;-68
2022/12/21 00:57:53;;;;;;;15.07;8.33;;;6.40;37.10;;;;;;4968318;28;20971;-68
2022/12/21 01:00:20;;;;;;;12.23;8.93;;;6.50;37.10;;;;;;4970447;28;20472;-68
2022/12/21 01:02:47;;;;;;;15.43;9.30;;;6.40;37.10;;;;;;4963369;28;20481;-68
2022/12/21 01:05:14;;;;;;;11.90;7.50;;;6.50;37.10;;;;;;4965233;28;20465;-68
2022/12/21 01:07:42;;;;;;;11.93;8.30;;;6.40;37.70;;;;;;4968918;28;20544;-68
2022/12/21 01:10:10;;;;;;;11.83;7.60;;;6.40;37.20;;;;;;4963754;28;20472;-68
2022/12/21 01:12:37;;;;;;;14.30;9.40;;;6.40;37.40;;;;;;4972395;28;20980;-68
2022/12/21 01:15:04;;;;;;;12.70;9.10;;;6.40;37.50;;;;;;4969164;28;20955;-68
2022/12/21 01:17:31;;;;;;;22.87;10.33;;;6.40;37.60;;;;;;4968739;28;20473;-68
2022/12/21 01:19:58;;;;;;;12.90;8.80;;;6.40;37.60;;;;;;4967347;28;20481;-68
2022/12/21 01:22:24;;;;;;;11.30;7.83;;;6.40;37.80;;;;;;4969296;28;20834;-68
2022/12/21 01:24:52;;;;;;;14.53;8.60;;;6.40;37.80;;;;;;4962289;28;20466;-69
2022/12/21 01:27:19;;;;;;;10.30;7.00;;;6.40;38.10;;;;;;4971460;28;20465;-68
2022/12/21 01:29:46;;;;;;;12.80;7.90;;;6.40;38.10;;;;;;4964274;28;20458;-68
2022/12/21 01:32:13;;;;;;;11.77;8.60;;;6.40;38.40;;;;;;4966257;28;20987;-68
2022/12/21 01:34:39;;;;;;;13.50;9.03;;;6.50;38.40;;;;;;4962416;28;20481;-68
2022/12/21 01:37:06;;;;;;;12.93;8.90;;;6.50;38.40;;;;;;4972130;28;20488;-68
2022/12/21 01:39:33;;;;;;;12.90;8.80;;;6.50;38.40;;;;;;4968958;28;20962;-68
2022/12/21 01:42:01;;;;;;;12.63;7.33;;;6.50;38.60;;;;;;4966868;28;20458;-68
2022/12/21 01:44:59;;;;;;;13.60;8.10;;;6.50;38.50;;;;;;4969362;28;20471;-68
2022/12/21 01:47:30;;;;;;;11.10;7.97;;;6.50;38.70;;;;;;4962619;28;20473;-68
2022/12/21 01:50:00;;;;;;;14.50;8.70;;;6.40;38.70;;;;;;4967327;28;21215;-67
2022/12/21 01:52:29;;;;;;;13.60;8.80;;;6.40;38.80;;;;;;4966408;28;20481;-68
2022/12/21 01:54:59;;;;;;;13.90;8.20;;;6.40;38.80;;;;;;4970061;28;20461;-68
2022/12/21 01:57:30;;;;;;;15.43;9.10;;;6.50;38.90;;;;;;4963421;28;20468;-68
2022/12/21 01:59:59;;;;;;;13.07;8.57;;;6.50;39.10;;;;;;4966537;28;20490;-68
2022/12/21 02:02:30;;;;;;;12.00;7.30;;;6.40;38.90;;;;;;4966158;28;20489;-68
2022/12/21 02:05:03;;;;;;;13.80;8.50;;;6.40;39.10;;;;;;4968580;28;20462;-68
2022/12/21 02:07:30;;;;;;;12.80;8.50;;;6.40;39.00;;;;;;4964790;28;21362;-67
2022/12/21 02:09:58;;;;;;;11.47;7.90;;;6.40;39.00;;;;;;4966844;28;20454;-66
2022/12/21 02:12:27;;;;;;;16.03;9.30;;;6.40;39.60;;;;;;4968314;28;20488;-67
2022/12/21 02:14:54;;;;;;;14.13;9.53;;;6.40;39.00;;;;;;4970399;28;20456;-67
2022/12/21 02:17:32;;;;;;;22.63;10.27;;;6.40;39.10;;;;;;4967115;28;20465;-69
2022/12/21 02:20:39;;;;;;;11.57;7.93;;;6.40;39.20;;;;;;4965633;28;21021;-66
2022/12/21 02:23:30;;;;;;;12.97;8.77;;;6.50;39.30;;;;;;4967281;28;20485;-66
2022/12/21 02:26:26;;;;;;;13.03;8.50;;;6.40;39.20;;;;;;4967384;28;20958;-66
2022/12/21 02:29:31;;;;;;;14.17;9.03;;;6.50;39.20;;;;;;4956160;28;20458;-66
2022/12/21 02:32:09;;;;;;;12.40;8.40;;;6.40;39.20;;;;;;4961212;28;20477;-66
2022/12/21 02:34:45;;;;;;;14.20;9.87;;;6.40;39.20;;;;;;4969590;28;20986;-66
2022/12/21 02:37:16;;;;;;;16.10;9.10;;;6.40;39.10;;;;;;4966935;28;20465;-67
2022/12/21 02:39:51;;;;;;;13.83;8.90;;;6.40;39.10;;;;;;4967533;28;20493;-66
2022/12/21 02:45:18;;;;;;;11.23;8.70;;;6.40;39.00;;;;;;4966498;28;20465;-67
2022/12/21 02:47:52;;;;;;;19.23;9.70;;;6.50;38.80;;;;;;4962639;28;20471;-67
2022/12/21 02:50:28;;;;;;;13.10;9.07;;;6.50;38.80;;;;;;4965093;28;20457;-66
2022/12/21 02:52:58;;;;;;;14.10;10.00;;;6.50;38.60;;;;;;4963187;28;20624;-67
2022/12/21 02:55:27;;;;;;;15.00;9.60;;;6.50;38.70;;;;;;4960135;28;20462;-66
2022/12/21 02:58:12;;;;;;;14.80;10.20;;;6.50;38.50;;;;;;4966080;28;20458;-66
2022/12/21 03:00:52;;;;;;;16.70;10.37;;;6.40;38.50;;;;;;4966191;28;20466;-66
2022/12/21 03:03:51;;;;;;;14.17;10.60;;;6.40;38.50;;;;;;4967321;28;20853;-66
2022/12/21 03:06:33;;;;;;;15.23;10.50;;;6.40;38.60;;;;;;4965357;28;20540;-66
2022/12/21 03:09:12;;;;;;;15.17;10.43;;;6.30;38.60;;;;;;4964435;28;20480;-66
2022/12/21 03:11:47;;;;;;;15.27;10.07;;;6.30;38.80;;;;;;4968531;28;20461;-69
2022/12/21 03:14:26;;;;;;;17.83;10.57;;;6.30;38.80;;;;;;4965242;28;20532;-66
2022/12/21 03:16:56;;;;;;;18.37;11.60;;;6.30;38.80;;;;;;4964639;28;20461;-66
2022/12/21 03:19:32;;;;;;;17.23;10.40;;;6.30;38.90;;;;;;4962009;28;20937;-66
2022/12/21 03:22:02;;;;;;;15.40;10.70;;;6.30;38.80;;;;;;4959563;28;20465;-66
2022/12/21 03:24:35;;;;;;;16.30;10.47;;;6.30;39.10;;;;;;4965657;28;20461;-67
2022/12/21 03:27:07;;;;;;;18.00;11.10;;;6.30;39.10;;;;;;4963836;28;20990;-67
2022/12/21 03:29:40;;;;;;;16.00;11.10;;;6.30;39.30;;;;;;4960912;28;20573;-66
2022/12/21 03:32:11;;;;;;;15.80;9.67;;;6.20;39.30;;;;;;4965813;28;20481;-66
2022/12/21 03:34:43;;;;;;;16.27;11.27;;;6.20;39.50;;;;;;4967815;28;21072;-67
2022/12/21 03:37:15;;;;;;;13.43;10.13;;;6.20;39.70;;;;;;4967624;28;20470;-66
2022/12/21 03:39:47;;;;;;;15.93;11.47;;;6.20;39.80;;;;;;4966870;28;20477;-67
2022/12/21 03:42:19;;;;;;;16.10;12.03;;;6.20;39.90;;;;;;4969972;28;20496;-66
2022/12/21 03:44:50;;;;;;;14.80;10.23;;;6.20;39.80;;;;;;4965815;28;20984;-67
2022/12/21 03:47:20;;;;;;;15.70;10.30;;;6.30;39.90;;;;;;4962387;28;20484;-67
2022/12/21 03:49:54;;;;;;;17.60;11.00;;;6.30;40.00;;;;;;4962854;28;20469;-66
2022/12/21 03:52:23;;;;;;;14.90;11.10;;;6.20;40.00;;;;;;4970956;28;20486;-66
2022/12/21 03:54:55;;;;;;;14.70;10.60;;;6.30;40.00;;;;;;4976607;28;21241;-66
2022/12/21 03:57:23;;;;;;;18.60;11.03;;;6.20;40.10;;;;;;4969146;28;21147;-67
2022/12/21 03:59:53;;;;;;;17.17;10.47;;;6.20;40.10;;;;;;4970494;28;20478;-66
2022/12/21 04:02:26;;;;;;;15.77;11.33;;;6.20;40.10;;;;;;4970460;28;20484;-66
2022/12/21 04:04:58;;;;;;;16.70;10.73;;;6.20;40.20;;;;;;4972443;28;20462;-67
2022/12/21 04:07:26;;;;;;;15.07;10.60;;;6.20;40.40;;;;;;4964744;28;20462;-67
2022/12/21 04:09:59;;;;;;;15.53;10.57;;;6.20;40.30;;;;;;4969809;28;20465;-66
2022/12/21 04:12:37;;;;;;;16.10;10.40;;;6.20;40.30;;;;;;4965685;28;20924;-66
2022/12/21 04:15:06;;;;;;;18.43;11.63;;;6.20;40.40;;;;;;4971840;28;20460;-66
2022/12/21 04:17:33;;;;;;;17.70;10.10;;;6.20;40.70;;;;;;4967378;28;20990;-66
2022/12/21 04:20:02;;;;;;;16.43;10.47;;;6.20;40.80;;;;;;4974703;28;20487;-66
2022/12/21 04:28:09;;;;;;;14.80;9.17;;;6.20;40.90;;;;;;4970574;28;20488;-66
2022/12/21 04:30:36;;;;;;;14.17;9.27;;;6.20;41.10;;;;;;4966771;28;20472;-66
2022/12/21 04:33:03;;;;;;;14.23;10.00;;;6.20;41.10;;;;;;4969233;28;20486;-66
2022/12/21 04:35:32;;;;;;;14.43;9.77;;;6.20;41.30;;;;;;4965720;28;20462;-65
2022/12/21 04:37:57;;;;;;;19.73;10.80;;;6.30;41.50;;;;;;4968926;28;20457;-66
2022/12/21 04:40:24;;;;;;;15.80;9.60;;;6.30;41.50;;;;;;4968706;28;20484;-66
2022/12/21 04:42:51;;;;;;;14.70;10.63;;;6.30;41.60;;;;;;4969459;28;20254;-66
2022/12/21 04:45:18;;;;;;;16.57;10.07;;;6.30;41.50;;;;;;4964335;28;20457;-67
2022/12/21 04:47:45;;;;;;;16.70;9.50;;;6.30;41.70;;;;;;4968637;28;20989;-66
2022/12/21 04:50:12;;;;;;;17.03;10.00;;;6.30;41.70;;;;;;4967362;28;20546;-66
2022/12/21 04:52:40;;;;;;;12.27;9.13;;;6.30;41.80;;;;;;4968262;28;20482;-66
2022/12/21 04:55:08;;;;;;;15.47;9.30;;;6.30;42.00;;;;;;4970248;28;20462;-66
2022/12/21 04:57:34;;;;;;;14.97;9.50;;;6.40;41.80;;;;;;4971012;28;20461;-66
2022/12/21 05:00:01;;;;;;;15.07;9.93;;;6.40;41.80;;;;;;4971611;28;20481;-66
2022/12/21 05:02:28;;;;;;;12.57;8.60;;;6.40;41.90;;;;;;4966524;28;20488;-66
2022/12/21 05:04:55;;;;;;;14.03;9.80;;;6.40;42.00;;;;;;4966102;28;21188;-66
2022/12/21 05:07:22;;;;;;;13.87;9.40;;;6.40;42.00;;;;;;4964649;28;20465;-70
2022/12/21 05:09:50;;;;;;;14.57;8.63;;;6.40;42.10;;;;;;4951261;28;20469;-70
2022/12/21 05:12:16;;;;;;;13.60;9.70;;;6.40;42.20;;;;;;4957806;28;20489;-74
2022/12/21 05:14:43;;;;;;;14.83;9.27;;;6.40;42.40;;;;;;4962986;28;20469;-69
2022/12/21 05:17:10;;;;;;;13.83;9.30;;;6.40;42.50;;;;;;4958678;28;20485;-69
2022/12/21 05:19:36;;;;;;;13.93;8.70;;;6.40;42.60;;;;;;4961530;28;20496;-70
2022/12/21 05:22:03;;;;;;;15.67;8.83;;;6.50;42.80;;;;;;4966315;28;20947;-69
2022/12/21 05:24:30;;;;;;;14.77;9.90;;;6.50;42.80;;;;;;4967562;28;20661;-70
2022/12/21 05:26:58;;;;;;;15.33;10.20;;;6.50;42.70;;;;;;4969162;28;20461;-69
2022/12/21 05:29:25;;;;;;;15.10;9.77;;;6.50;42.90;;;;;;4965128;28;20464;-68
2022/12/21 05:31:52;;;;;;;15.63;8.93;;;6.50;42.80;;;;;;4963062;28;21040;-70
2022/12/21 05:34:18;;;;;;;14.00;9.40;;;6.50;42.60;;;;;;4970882;28;20491;-69
2022/12/21 05:36:45;;;;;;;14.87;9.50;;;6.50;42.90;;;;;;4967646;28;20465;-70
2022/12/21 05:39:12;;;;;;;18.83;10.43;;;6.50;42.90;;;;;;4965604;28;20461;-73
2022/12/21 05:41:39;;;;;;;16.47;9.73;;;6.50;42.70;;;;;;4964483;28;20966;-71
2022/12/21 05:44:09;;;;;;;17.77;10.40;;;6.50;42.60;;;;;;4968014;28;20489;-69
2022/12/21 05:46:35;;;;;;;14.27;10.53;;;6.40;42.50;;;;;;4964026;28;20812;-69
2022/12/21 05:49:02;;;;;;;16.73;10.40;;;6.40;42.30;;;;;;4965302;28;20482;-70
2022/12/21 05:51:29;;;;;;;19.30;10.70;;;6.40;42.40;;;;;;4963005;28;20454;-68
2022/12/21 05:53:56;;;;;;;19.37;10.53;;;6.40;42.40;;;;;;4966671;28;20487;-70
2022/12/21 05:56:23;;;;;;;24.43;10.80;;;6.40;42.60;;;;;;4967832;28;20477;-70
2022/12/21 05:58:50;;;;;;;16.33;9.27;;;6.40;42.70;;;;;;4968164;28;20469;-67
2022/12/21 06:01:18;;;;;;;20.50;10.83;;;6.40;42.70;;;;;;4965667;28;20497;-69
2022/12/21 06:03:45;;;;;;;15.80;9.97;;;6.40;42.70;;;;;;4966356;28;20520;-70
2022/12/21 06:06:14;;;;;;;18.27;10.13;;;6.40;42.50;;;;;;4969685;28;20474;-70
2022/12/21 06:08:41;;;;;;;16.00;10.03;;;6.40;42.20;;;;;;4963672;28;20464;-69
2022/12/21 06:11:10;;;;;;;13.50;10.13;;;6.40;42.10;;;;;;4967839;28;21178;-69
2022/12/21 06:13:37;;;;;;;17.43;11.10;;;6.40;41.90;;;;;;4962676;28;20500;-70
2022/12/21 06:16:06;;;;;;;18.40;10.43;;;6.40;41.80;;;;;;4972460;28;20473;-71
2022/12/21 06:18:34;;;;;;;14.33;9.83;;;6.30;42.00;;;;;;4963689;28;20469;-71
2022/12/21 06:21:01;;;;;;;16.57;10.27;;;6.30;42.00;;;;;;4967712;28;20867;-71
2022/12/21 06:23:28;;;;;;;18.90;12.17;;;6.30;42.30;;;;;;4965717;28;20481;-70
2022/12/21 06:25:56;;;;;;;19.50;11.73;;;6.30;42.50;;;;;;4963253;28;20473;-70
2022/12/21 06:28:24;;;;;;;16.03;10.63;;;6.30;42.70;;;;;;4967712;28;20469;-70
2022/12/21 06:30:51;;;;;;;16.67;11.50;;;6.30;42.60;;;;;;4957278;28;21132;-71
2022/12/21 06:33:19;;;;;;;21.57;11.70;;;6.30;42.70;;;;;;4963891;28;20969;-76
2022/12/21 06:35:47;;;;;;;14.67;10.63;;;6.30;42.90;;;;;;4963783;28;20473;-76
2022/12/21 06:38:14;;;;;;;17.33;11.20;;;6.30;42.90;;;;;;4966226;28;20466;-72
2022/12/21 06:40:41;;;;;;;20.20;12.37;;;6.30;43.00;;;;;;4965962;28;20501;-72
2022/12/21 06:43:07;;;;;;;21.00;11.23;;;6.40;43.00;;;;;;4962980;28;20515;-72
2022/12/21 06:45:34;;;;;;;15.90;11.50;;;6.30;43.00;;;;;;4977698;23;20532;-63
2022/12/21 06:48:01;;;;;;;20.83;11.97;;;6.40;43.10;;;;;;4980974;28;20475;-63
2022/12/21 06:50:28;;;;;;;17.37;11.40;;;6.40;42.90;;;;;;4981207;28;20468;-63
2022/12/21 06:52:56;;;;;;;19.60;10.87;;;6.40;42.80;;;;;;4982933;28;20461;-63
2022/12/21 06:55:23;;;;;;;18.40;10.40;;;6.30;42.70;;;;;;4984961;28;20485;-63
2022/12/21 06:57:49;;;;;;;16.00;9.90;;;6.30;42.90;;;;;;4986089;28;20924;-65
2022/12/21 07:00:17;;;;;;;18.90;12.40;;;6.30;42.80;;;;;;4983375;28;20484;-66
2022/12/21 07:02:44;;;;;;;17.43;11.13;;;6.30;42.70;;;;;;4983964;28;20532;-65
2022/12/21 07:05:10;;;;;;;24.13;10.73;;;6.30;43.10;;;;;;4984667;28;20499;-63
2022/12/21 07:07:37;;;;;;;19.60;11.87;;;6.30;43.10;;;;;;4988148;28;20486;-64
2022/12/21 07:10:07;;;;;;;16.73;12.27;;;6.30;43.10;;;;;;4983968;28;20457;-64
2022/12/21 07:12:33;;;;;;;15.53;11.03;;;6.30;43.30;;;;;;4990055;28;20472;-65
2022/12/21 07:15:00;;;;;;;16.70;10.93;;;6.40;43.10;;;;;;4984809;28;20868;-65
2022/12/21 07:17:29;;;;;;;14.63;10.20;;;6.40;43.00;;;;;;4985895;28;20471;-64
2022/12/21 07:19:55;;;;;;;16.43;10.93;;;6.40;43.10;;;;;;4988819;28;20460;-64
2022/12/21 07:22:23;;;;;;;16.97;11.40;;;6.30;43.00;;;;;;4984036;28;20850;-65
2022/12/21 07:24:50;;;;;;;20.27;11.20;;;6.40;43.00;;;;;;4982580;28;20583;-66
2022/12/21 07:27:18;;;;;;;16.80;10.07;;;6.30;43.00;;;;;;4987198;28;20468;-66
2022/12/21 07:29:45;;;;;;;19.83;10.50;;;6.30;43.00;;;;;;4987373;28;20473;-64
2022/12/21 07:32:12;;;;;;;17.93;11.57;;;6.30;43.20;;;;;;4979934;28;20507;-65
2022/12/21 07:34:38;;;;;;;20.33;12.60;;;6.20;43.10;;;;;;4968191;23;21124;-63
2022/12/21 07:37:05;;;;;;;19.00;11.80;;;6.20;43.20;;;;;;4952454;28;20484;-63
2022/12/21 07:39:32;;;;;;;19.00;12.30;;;6.20;43.30;;;;;;4960036;28;20469;-63
2022/12/21 07:41:59;;;;;;;17.20;10.33;;;6.20;43.40;;;;;;4954599;28;20477;-63
2022/12/21 07:44:27;;;;;;;18.70;10.73;;;6.30;43.40;;;;;;4954658;28;20862;-61
2022/12/21 07:46:54;;;;;;;17.03;10.27;;;6.30;43.40;;;;;;4939357;28;20460;-63
2022/12/21 07:49:21;;;;;;;16.90;10.00;;;6.40;43.50;;;;;;4943913;28;20868;-62
2022/12/21 07:51:47;;;;;;;12.43;9.20;;;6.40;43.50;;;;;;4945569;28;20463;-61
2022/12/21 07:54:15;;;;;;;18.30;9.67;;;6.40;43.80;;;;;;4942428;28;20544;-62
2022/12/21 07:56:42;;;;;;;15.90;9.00;;;6.50;44.00;;;;;;4944144;28;20529;-64
2022/12/21 07:59:09;;;;;;;14.00;7.70;;;6.50;44.40;;;;;;4946968;28;20458;-64
2022/12/21 08:01:38;;;;;;;11.73;6.97;;;6.60;44.90;;;;;;4939424;28;20573;-70
2022/12/21 08:04:07;;;;;;;17.30;6.53;;;6.60;45.20;;;;;;4940007;28;20470;-64
2022/12/21 08:06:33;;;;;;;10.97;5.60;;;6.70;46.10;;;;;;4943150;28;20466;-64
2022/12/21 08:09:00;;;;;;;11.23;5.17;;;6.70;46.40;;;;;;4933270;28;20466;-63
2022/12/21 08:11:28;;;;;;;8.27;4.60;;;6.80;47.00;;;;;;4938688;28;20717;-67
2022/12/21 08:13:55;;;;;;;9.40;5.17;;;6.90;47.60;;;;;;4946368;28;20486;-72
2022/12/21 08:16:23;;;;;;;11.67;5.07;;;7.00;48.00;;;;;;4949470;28;20466;-62
2022/12/21 08:18:51;;;;;;;8.97;3.70;;;7.10;48.00;;;;;;4949158;28;20473;-61
2022/12/21 08:21:18;;;;;;;10.20;4.67;;;7.10;48.30;;;;;;4953506;28;20485;-63
2022/12/21 08:23:45;;;;;;;6.50;3.60;;;7.20;48.40;;;;;;4947227;28;20501;-62
2022/12/21 08:26:13;;;;;;;8.33;4.97;;;7.30;48.30;;;;;;4948434;28;20544;-70
2022/12/21 08:28:41;;;;;;;7.30;3.47;;;7.40;48.30;;;;;;4948175;28;20517;-72
2022/12/21 08:31:11;;;;;;;8.27;3.60;;;7.40;48.20;;;;;;4943611;28;20503;-61
2022/12/21 08:33:41;;;;;;;7.83;3.70;;;7.50;48.00;;;;;;4943972;28;20549;-64
2022/12/21 08:36:11;;;;;;;7.50;3.93;;;7.50;47.90;;;;;;4941783;28;20495;-63
2022/12/21 08:38:38;;;;;;;6.90;3.30;;;7.60;47.70;;;;;;4950013;28;20466;-67
2022/12/21 08:41:05;;;;;;;12.57;4.73;;;7.70;47.70;;;;;;4945463;28;20485;-69
2022/12/21 08:43:35;;;;;;;7.80;3.60;;;7.70;47.80;;;;;;4944059;28;20814;-67
2022/12/21 08:46:04;;;;;;;6.73;3.13;;;7.70;47.80;;;;;;4941766;28;20483;-70
2022/12/21 08:48:31;;;;;;;8.60;3.40;;;7.80;47.60;;;;;;4946181;28;20502;-67
2022/12/21 08:50:58;;;;;;;10.23;3.17;;;7.80;47.60;;;;;;4945567;28;20951;-68
2022/12/21 08:53:27;;;;;;;8.83;3.93;;;7.90;47.50;;;;;;4947152;28;20481;-68
2022/12/21 08:55:54;;;;;;;6.43;2.90;;;7.90;47.80;;;;;;4947316;28;20497;-69
2022/12/21 08:58:22;;;;;;;7.40;2.53;;;7.90;47.50;;;;;;4946583;28;20466;-71
2022/12/21 09:00:52;;;;;;;11.47;2.80;;;8.00;47.50;;;;;;4944357;28;21010;-67
2022/12/21 09:03:19;;;;;;;5.63;2.60;;;8.00;47.60;;;;;;4949977;28;20464;-66
2022/12/21 09:05:46;;;;;;;6.13;2.73;;;8.10;47.70;;;;;;4949300;28;20494;-67
2022/12/21 09:08:14;;;;;;;6.23;3.00;;;8.10;47.80;;;;;;4947245;28;20467;-70
2022/12/21 09:10:42;;;;;;;9.90;3.50;;;8.20;47.70;;;;;;4946452;28;20832;-64
2022/12/21 09:13:08;;;;;;;6.00;3.07;;;8.20;47.60;;;;;;4943220;28;20478;-64
2022/12/21 09:15:41;;;;;;;8.07;3.13;;;8.30;47.70;;;;;;4944500;28;20854;-63
2022/12/21 09:18:08;;;;;;;6.20;2.80;;;8.40;47.60;;;;;;4943789;28;20463;-68
2022/12/21 09:20:35;;;;;;;8.80;2.37;;;8.50;47.10;;;;;;4944509;28;20459;-66
2022/12/21 09:23:01;;;;;;;9.57;2.87;;;8.60;46.90;;;;;;4943180;28;20475;-63
2022/12/21 09:25:28;;;;;;;8.30;2.77;;;8.70;46.60;;;;;;4936789;28;20514;-65
2022/12/21 09:28:00;;;;;;;7.70;3.40;;;8.70;46.20;;;;;;4940588;28;21116;-63
2022/12/21 09:30:27;;;;;;;5.70;2.60;;;8.80;46.10;;;;;;4936944;28;20470;-62
2022/12/21 09:32:54;;;;;;;8.13;3.63;;;8.90;46.00;;;;;;4937488;28;20467;-66
2022/12/21 09:35:21;;;;;;;9.63;3.20;;;8.90;45.60;;;;;;4938555;28;20492;-65
2022/12/21 09:37:48;;;;;;;6.33;3.40;;;8.90;45.40;;;;;;4948081;28;20463;-64
2022/12/21 09:40:16;;;;;;;6.53;3.40;;;8.80;45.10;;;;;;4946253;28;20465;-65
2022/12/21 09:42:52;;;;;;;9.77;3.73;;;8.90;45.20;;;;;;4947679;28;20525;-66
2022/12/21 09:45:24;;;;;;;8.53;4.10;;;8.90;45.20;;;;;;4945005;28;20482;-65
2022/12/21 09:47:54;;;;;;;9.10;3.93;;;8.90;45.10;;;;;;4946562;28;20477;-66
2022/12/21 09:50:24;;;;;;;10.10;4.60;;;8.90;45.20;;;;;;4937385;28;20471;-64
2022/12/21 09:52:58;;;;;;;8.60;3.80;;;8.90;45.20;;;;;;4948060;28;20470;-63
2022/12/21 09:55:27;;;;;;;9.90;4.10;;;8.90;45.00;;;;;;4946138;28;20490;-63
2022/12/21 09:57:57;;;;;;;7.83;4.07;;;9.00;44.80;;;;;;4950084;28;20469;-62
2022/12/21 10:00:26;;;;;;;9.70;4.63;;;9.00;44.50;;;;;;4943916;28;20486;-63
2022/12/21 10:03:22;;;;;;;12.57;4.50;;;9.00;44.60;;;;;;4946124;28;20573;-63
2022/12/21 10:06:07;;;;;;;9.27;5.43;;;9.20;44.60;;;;;;4945911;28;20482;-63
2022/12/21 10:08:50;;;;;;;12.13;6.10;;;9.30;43.70;;;;;;4942520;28;20457;-63
2022/12/21 10:11:30;;;;;;;11.43;6.00;;;9.40;43.20;;;;;;4946820;28;20466;-62
2022/12/21 10:14:08;;;;;;;19.83;11.17;;;9.40;42.60;;;;;;4948299;28;20844;-63
2022/12/21 10:16:46;;;;;;;12.77;10.00;;;9.40;42.30;;;;;;4942412;28;20462;-63
2022/12/21 10:19:23;;;;;;;15.40;11.70;;;9.40;42.20;;;;;;4946731;28;20459;-63
2022/12/21 10:21:58;;;;;;;15.80;9.60;;;9.40;42.10;;;;;;4944255;28;20490;-63
2022/12/21 10:24:29;;;;;;;19.30;13.10;;;9.40;41.70;;;;;;4944344;28;20483;-63
2022/12/21 10:27:02;;;;;;;16.00;10.80;;;9.40;41.40;;;;;;4945111;28;20838;-63
2022/12/21 10:29:35;;;;;;;16.57;11.00;;;9.40;41.10;;;;;;4944383;28;20471;-62
2022/12/21 10:32:04;;;;;;;10.93;6.30;;;9.40;41.00;;;;;;4945811;28;20513;-64
2022/12/21 10:34:34;;;;;;;12.03;7.20;;;9.40;41.10;;;;;;4907477;28;1107857;-62
2022/12/21 10:37:03;;;;;;;9.20;6.70;;;9.40;40.70;;;;;;4945177;28;20589;-64
2022/12/21 10:39:32;;;;;;;11.83;6.97;;;9.40;40.70;;;;;;4944811;28;20459;-62
2022/12/21 10:42:05;;;;;;;11.07;7.17;;;9.40;40.60;;;;;;4940749;28;20474;-63
2022/12/21 10:44:35;;;;;;;11.87;7.13;;;9.40;40.50;;;;;;4938844;28;20503;-64
2022/12/21 10:47:13;;;;;;;11.13;6.40;;;9.40;40.50;;;;;;4939649;28;20473;-63
2022/12/21 10:49:42;;;;;;;9.90;6.03;;;9.40;40.80;;;;;;4943905;28;20462;-62
2022/12/21 10:52:47;;;;;;;7.93;4.80;;;9.40;40.60;;;;;;4943338;28;20495;-62
2022/12/21 10:55:31;;;;;;;10.30;5.60;;;9.40;41.00;;;;;;4936545;28;20486;-63
2022/12/21 10:58:12;;;;;;;11.70;5.43;;;9.40;41.30;;;;;;4946545;28;20979;-61
2022/12/21 11:00:40;;;;;;;11.53;5.90;;;9.40;41.40;;;;;;4947418;28;20462;-63
2022/12/21 11:03:24;;;;;;;11.93;5.70;;;9.40;41.30;;;;;;4944692;28;21132;-61
2022/12/21 11:05:51;;;;;;;8.80;5.53;;;9.50;41.50;;;;;;4943819;28;20486;-63
2022/12/21 11:08:23;;;;;;;9.53;6.10;;;9.50;41.40;;;;;;4941617;28;20470;-62
2022/12/21 11:10:51;;;;;;;9.60;6.10;;;9.50;41.20;;;;;;4943280;28;20458;-63
2022/12/21 11:13:20;;;;;;;8.37;5.80;;;9.50;41.10;;;;;;4940746;28;20458;-63
2022/12/21 11:15:56;;;;;;;9.83;6.07;;;9.50;40.70;;;;;;4946225;28;20485;-63
2022/12/21 11:18:43;;;;;;;11.20;6.13;;;9.50;40.90;;;;;;4942009;28;20477;-61
2022/12/21 11:21:32;;;;;;;8.23;4.90;;;9.50;40.70;;;;;;4943926;28;20973;-63
2022/12/21 11:24:04;;;;;;;12.40;5.90;;;9.50;40.50;;;;;;4945143;28;20458;-62
2022/12/21 11:26:38;;;;;;;9.50;5.40;;;9.50;40.40;;;;;;4941403;28;20546;-62
2022/12/21 11:29:07;;;;;;;10.60;5.77;;;9.50;40.40;;;;;;4946111;28;21085;-61
2022/12/21 11:31:36;;;;;;;11.93;7.50;;;9.50;40.20;;;;;;4946345;28;20570;-62
2022/12/21 11:34:04;;;;;;;10.50;5.87;;;9.40;40.00;;;;;;4943201;28;20471;-63
2022/12/21 11:36:31;;;;;;;13.67;6.60;;;9.40;39.90;;;;;;4946836;28;20470;-62
2022/12/21 11:38:58;;;;;;;10.83;7.27;;;9.40;40.20;;;;;;4945569;28;20467;-62
2022/12/21 11:41:30;;;;;;;11.33;7.60;;;9.40;39.70;;;;;;4944226;28;20486;-63
2022/12/21 11:43:57;;;;;;;11.37;7.00;;;9.40;39.80;;;;;;4937143;28;20484;-63
2022/12/21 11:46:36;;;;;;;13.70;6.67;;;9.40;39.70;;;;;;4944209;28;20466;-62
2022/12/21 11:49:24;;;;;;;11.40;7.83;;;9.40;39.70;;;;;;4943869;28;20477;-62
2022/12/21 11:51:59;;;;;;;12.60;7.53;;;9.40;39.90;;;;;;4942023;28;20466;-63
2022/12/21 11:54:39;;;;;;;12.40;8.67;;;9.50;39.40;;;;;;4932169;28;20478;-61
2022/12/21 11:57:15;;;;;;;11.63;8.90;;;9.50;39.50;;;;;;4944245;28;20466;-63
2022/12/21 11:59:58;;;;;;;13.23;9.70;;;9.50;39.20;;;;;;4941870;28;20462;-62
2022/12/21 12:02:57;;;;;;;15.03;9.07;;;9.50;39.10;;;;;;4942461;28;20482;-62
2022/12/21 12:05:40;;;;;;;9.93;7.67;;;9.60;39.10;;;;;;4943661;28;20486;-62
2022/12/21 12:08:17;;;;;;;11.57;8.13;;;9.50;39.10;;;;;;4944628;28;20462;-63
2022/12/21 12:11:07;;;;;;;10.83;8.10;;;9.50;39.00;;;;;;4945949;28;20577;-64
2022/12/21 12:13:50;;;;;;;10.63;7.07;;;9.60;39.10;;;;;;4948277;28;20477;-62
2022/12/21 12:16:28;;;;;;;11.43;6.43;;;9.70;38.80;;;;;;4944592;28;20852;-62
2022/12/21 12:19:03;;;;;;;11.80;7.13;;;9.70;38.70;;;;;;4944595;28;20477;-61
2022/12/21 12:21:35;;;;;;;10.93;6.37;;;9.80;38.60;;;;;;4943447;28;20472;-63
2022/12/21 12:24:17;;;;;;;11.30;6.40;;;9.80;38.60;;;;;;4944225;29;20462;-62
2022/12/21 12:26:51;;;;;;;12.53;6.67;;;9.80;38.90;;;;;;4946723;28;20477;-61
2022/12/21 12:29:40;;;;;;;8.93;6.10;;;9.80;38.70;;;;;;4941213;28;20470;-62
2022/12/21 12:32:25;;;;;;;11.97;5.80;;;9.80;38.80;;;;;;4940293;28;20475;-63
2022/12/21 12:35:07;;;;;;;9.90;7.23;;;9.80;38.60;;;;;;4941150;28;21057;-63
2022/12/21 12:37:46;;;;;;;12.90;6.93;;;9.70;39.00;;;;;;4942692;28;20470;-63
2022/12/21 12:40:23;;;;;;;11.50;6.80;;;9.70;39.10;;;;;;4940801;28;21008;-63
2022/12/21 12:42:53;;;;;;;12.97;8.53;;;9.70;39.30;;;;;;4946241;28;20492;-63
2022/12/21 12:45:29;;;;;;;11.17;8.03;;;9.70;39.30;;;;;;4941942;28;20860;-63
2022/12/21 12:48:06;;;;;;;13.13;8.63;;;9.70;39.50;;;;;;4939730;28;20501;-63
2022/12/21 12:50:40;;;;;;;13.03;7.20;;;9.70;39.60;;;;;;4949935;28;20462;-62
2022/12/21 12:53:33;;;;;;;11.27;7.57;;;9.70;39.50;;;;;;4946367;28;20469;-63
2022/12/21 12:56:10;;;;;;;10.60;6.67;;;9.70;39.80;;;;;;4949199;28;20926;-63
2022/12/21 12:58:47;;;;;;;10.20;6.53;;;9.70;39.70;;;;;;4945632;28;20474;-62
2022/12/21 13:01:21;;;;;;;11.00;6.10;;;9.80;39.80;;;;;;4940915;28;21076;-62
2022/12/21 13:04:29;;;;;;;8.13;5.60;;;9.80;39.80;;;;;;4942856;28;20482;-61
2022/12/21 13:07:07;;;;;;;10.73;5.50;;;9.90;39.90;;;;;;4948542;28;20463;-63
2022/12/21 13:09:45;;;;;;;10.73;6.13;;;10.00;39.70;;;;;;4948657;28;20554;-61
2022/12/21 13:12:22;;;;;;;8.63;5.80;;;10.10;39.60;;;;;;4944809;28;20892;-61
2022/12/21 13:14:54;;;;;;;14.73;5.40;;;10.20;39.50;;;;;;4940697;28;20569;-62